Ocean Alliance — H8WU — position and weather

sailwx.info

Track history (hours):
 
Tides and Currents Weather Stations Pressure Air Temp Water Temp Dewpoint Dewpoint Depression Visibility Wind Speed Wind Dir Waves Ship Positions

Ocean Alliance

Last reported at 2017-Oct-20 16:09 UTC. Time now 2017-Dec-16 01:34 UTC.
Position N 30°59' E 122°32'.
Warning: this ship's position is 56 days out of date.

Length 190 m; draft 6.8 m.

Type: Cargo ship. MMSI: 370912000.

Date/timePositionNaut miles runAvg speedWind from/ knotsBaromVisibWave heightAir tempDewpointWater temp
2017-Oct-20 16:09N 30°59' E 122°32'210.7
2017-Oct-20 16:00N 30°60' E 122°30'510.0
2017-Oct-20 15:31N 31°01' E 122°25'6 9.7
2017-Oct-20 14:55N 31°02' E 122°18'7 7.3
2017-Oct-20 14:00N 31°03' E 122°10'3 6.1
2017-Oct-20 13:30N 31°03' E 122°07'3 6.0
2017-Oct-20 13:00N 31°04' E 122°04'3 6.7
2017-Oct-20 12:31N 31°05' E 121°60'3 6.6
2017-Oct-20 12:00N 31°07' E 121°57'3 5.3
2017-Oct-20 11:31N 31°08' E 121°54'2 4.9
2017-Oct-20 11:00N 31°10' E 121°52'3 6.0
2017-Oct-20 10:30N 31°12' E 121°49'3 6.6
2017-Oct-20 10:00N 31°15' E 121°47'4 7.9
2017-Oct-20 09:30N 31°18' E 121°44'4 7.8
2017-Oct-20 09:01N 31°20' E 121°40'3 5.4
2017-Oct-20 08:31N 31°22' E 121°38'3 6.8
2017-Oct-20 08:01N 31°23' E 121°34'3 5.8
2017-Oct-20 07:31N 31°25' E 121°31'3 5.0
2017-Oct-20 07:01N 31°26' E 121°29'2 4.1
2017-Oct-20 06:31N 31°28' E 121°27'3 5.6
2017-Oct-20 06:01N 31°29' E 121°25'1 2.2
2017-Oct-20 05:30N 31°30' E 121°23'0 0.0
2017-Oct-20 05:01N 31°30' E 121°23'0 0.0
2017-Oct-20 04:30N 31°30' E 121°23'0 0.0
2017-Oct-20 04:01N 31°30' E 121°23'0 0.0
2017-Oct-20 03:30N 31°30' E 121°23'0 0.0
2017-Oct-20 03:01N 31°30' E 121°23'0 0.0
2017-Oct-20 02:30N 31°30' E 121°23'0 0.0
2017-Oct-20 02:01N 31°30' E 121°23'0 0.0
2017-Oct-20 01:31N 31°30' E 121°23'0 0.0
2017-Oct-20 01:00N 31°30' E 121°23'0 0.0
2017-Oct-20 00:31N 31°30' E 121°23'0 0.0
2017-Oct-20 00:01N 31°30' E 121°23'0 0.0
2017-Oct-19 23:31N 31°30' E 121°23'0 0.0
2017-Oct-19 23:01N 31°30' E 121°23'0 0.0
2017-Oct-19 22:31N 31°30' E 121°23'0 0.0
2017-Oct-19 22:01N 31°30' E 121°23'0 0.0
2017-Oct-19 21:31N 31°30' E 121°23'0 0.0
2017-Oct-19 21:01N 31°30' E 121°23'0 0.0
2017-Oct-19 20:31N 31°30' E 121°23'0 0.0
2017-Oct-19 20:00N 31°30' E 121°23'0 0.0
2017-Oct-19 19:31N 31°30' E 121°23'0 0.0
2017-Oct-19 19:01N 31°30' E 121°23'0 0.0
2017-Oct-19 18:30N 31°30' E 121°23'0 0.0
2017-Oct-19 18:01N 31°30' E 121°23'0 0.0
2017-Oct-19 17:31N 31°30' E 121°23'0 0.0
2017-Oct-19 17:01N 31°30' E 121°23'0 0.0
2017-Oct-19 16:31N 31°30' E 121°23'0 0.0
2017-Oct-19 16:00N 31°30' E 121°23'0 0.0
2017-Oct-19 15:31N 31°30' E 121°23'0 0.0
2017-Oct-19 15:01N 31°30' E 121°23'0 0.0
2017-Oct-19 14:31N 31°30' E 121°23'0 0.0
2017-Oct-19 14:00N 31°30' E 121°23'0 0.0
2017-Oct-19 13:31N 31°30' E 121°23'0 0.0
2017-Oct-19 13:01N 31°30' E 121°23'0 0.0
2017-Oct-19 12:31N 31°30' E 121°23'0 0.0
2017-Oct-19 12:01N 31°30' E 121°23'0 0.0
2017-Oct-19 11:31N 31°30' E 121°23'0 0.0
2017-Oct-19 11:00N 31°30' E 121°23'0 0.0
2017-Oct-19 10:31N 31°30' E 121°23'0 0.0
2017-Oct-19 10:00N 31°30' E 121°23'0 0.0
2017-Oct-19 09:30N 31°30' E 121°23'0 0.0
2017-Oct-19 09:01N 31°30' E 121°23'0 0.0
2017-Oct-19 08:30N 31°30' E 121°23'0 0.0
2017-Oct-19 08:01N 31°30' E 121°23'0 0.0
2017-Oct-19 07:31N 31°30' E 121°23'0 0.5
2017-Oct-19 07:01N 31°30' E 121°24'3 5.3
2017-Oct-19 06:31N 31°28' E 121°26'4 7.8
2017-Oct-19 06:00N 31°26' E 121°30'4 8.1
2017-Oct-19 05:31N 31°24' E 121°34'3 6.5
2017-Oct-19 05:00N 31°22' E 121°37'4 7.2
2017-Oct-19 04:30N 31°20' E 121°41'4 7.9
2017-Oct-19 04:01N 31°19' E 121°45'610.4
2017-Oct-19 03:25N 31°16' E 121°52'410.4
2017-Oct-19 03:00N 31°15' E 121°57'5 9.9
2017-Oct-19 02:31N 31°14' E 122°02'510.2
2017-Oct-19 02:01N 31°13' E 122°08'510.4
2017-Oct-19 01:30N 31°10' E 122°13'5 9.5
2017-Oct-19 01:01N 31°07' E 122°17'4 7.1
2017-Oct-19 00:31N 31°06' E 122°21'4 6.6
2017-Oct-18 23:51N 31°06' E 122°27'  
Track history (hours):
 
Tides and Currents Weather Stations Pressure Air Temp Water Temp Dewpoint Dewpoint Depression Visibility Wind Speed Wind Dir Waves Ship Positions

Ocean Alliance

Last reported at 2017-Oct-20 16:09 UTC. Time now 2017-Dec-16 01:34 UTC.
Position N 30°59' E 122°32'.
Warning: this ship's position is 56 days out of date.

Length 190 m; draft 6.8 m.

Type: Cargo ship. MMSI: 370912000.

Date/timePositionNaut miles runAvg speedWind from/ knotsBaromVisibWave heightAir tempDewpointWater temp
2017-Oct-20 16:09N 30°59' E 122°32'210.7
2017-Oct-20 16:00N 30°60' E 122°30'510.0
2017-Oct-20 15:31N 31°01' E 122°25'6 9.7
2017-Oct-20 14:55N 31°02' E 122°18'7 7.3
2017-Oct-20 14:00N 31°03' E 122°10'3 6.1
2017-Oct-20 13:30N 31°03' E 122°07'3 6.0
2017-Oct-20 13:00N 31°04' E 122°04'3 6.7
2017-Oct-20 12:31N 31°05' E 121°60'3 6.6
2017-Oct-20 12:00N 31°07' E 121°57'3 5.3
2017-Oct-20 11:31N 31°08' E 121°54'2 4.9
2017-Oct-20 11:00N 31°10' E 121°52'3 6.0
2017-Oct-20 10:30N 31°12' E 121°49'3 6.6
2017-Oct-20 10:00N 31°15' E 121°47'4 7.9
2017-Oct-20 09:30N 31°18' E 121°44'4 7.8
2017-Oct-20 09:01N 31°20' E 121°40'3 5.4
2017-Oct-20 08:31N 31°22' E 121°38'3 6.8
2017-Oct-20 08:01N 31°23' E 121°34'3 5.8
2017-Oct-20 07:31N 31°25' E 121°31'3 5.0
2017-Oct-20 07:01N 31°26' E 121°29'2 4.1
2017-Oct-20 06:31N 31°28' E 121°27'3 5.6
2017-Oct-20 06:01N 31°29' E 121°25'1 2.2
2017-Oct-20 05:30N 31°30' E 121°23'0 0.0
2017-Oct-20 05:01N 31°30' E 121°23'0 0.0
2017-Oct-20 04:30N 31°30' E 121°23'0 0.0
2017-Oct-20 04:01N 31°30' E 121°23'0 0.0
2017-Oct-20 03:30N 31°30' E 121°23'0 0.0
2017-Oct-20 03:01N 31°30' E 121°23'0 0.0
2017-Oct-20 02:30N 31°30' E 121°23'0 0.0
2017-Oct-20 02:01N 31°30' E 121°23'0 0.0
2017-Oct-20 01:31N 31°30' E 121°23'0 0.0
2017-Oct-20 01:00N 31°30' E 121°23'0 0.0
2017-Oct-20 00:31N 31°30' E 121°23'0 0.0
2017-Oct-20 00:01N 31°30' E 121°23'0 0.0
2017-Oct-19 23:31N 31°30' E 121°23'0 0.0
2017-Oct-19 23:01N 31°30' E 121°23'0 0.0
2017-Oct-19 22:31N 31°30' E 121°23'0 0.0
2017-Oct-19 22:01N 31°30' E 121°23'0 0.0
2017-Oct-19 21:31N 31°30' E 121°23'0 0.0
2017-Oct-19 21:01N 31°30' E 121°23'0 0.0
2017-Oct-19 20:31N 31°30' E 121°23'0 0.0
2017-Oct-19 20:00N 31°30' E 121°23'0 0.0
2017-Oct-19 19:31N 31°30' E 121°23'0 0.0
2017-Oct-19 19:01N 31°30' E 121°23'0 0.0
2017-Oct-19 18:30N 31°30' E 121°23'0 0.0
2017-Oct-19 18:01N 31°30' E 121°23'0 0.0
2017-Oct-19 17:31N 31°30' E 121°23'0 0.0
2017-Oct-19 17:01N 31°30' E 121°23'0 0.0
2017-Oct-19 16:31N 31°30' E 121°23'0 0.0
2017-Oct-19 16:00N 31°30' E 121°23'0 0.0
2017-Oct-19 15:31N 31°30' E 121°23'0 0.0
2017-Oct-19 15:01N 31°30' E 121°23'0 0.0
2017-Oct-19 14:31N 31°30' E 121°23'0 0.0
2017-Oct-19 14:00N 31°30' E 121°23'0 0.0
2017-Oct-19 13:31N 31°30' E 121°23'0 0.0
2017-Oct-19 13:01N 31°30' E 121°23'0 0.0
2017-Oct-19 12:31N 31°30' E 121°23'0 0.0
2017-Oct-19 12:01N 31°30' E 121°23'0 0.0
2017-Oct-19 11:31N 31°30' E 121°23'0 0.0
2017-Oct-19 11:00N 31°30' E 121°23'0 0.0
2017-Oct-19 10:31N 31°30' E 121°23'0 0.0
2017-Oct-19 10:00N 31°30' E 121°23'0 0.0
2017-Oct-19 09:30N 31°30' E 121°23'0 0.0
2017-Oct-19 09:01N 31°30' E 121°23'0 0.0
2017-Oct-19 08:30N 31°30' E 121°23'0 0.0
2017-Oct-19 08:01N 31°30' E 121°23'0 0.0
2017-Oct-19 07:31N 31°30' E 121°23'0 0.5
2017-Oct-19 07:01N 31°30' E 121°24'3 5.3
2017-Oct-19 06:31N 31°28' E 121°26'4 7.8
2017-Oct-19 06:00N 31°26' E 121°30'4 8.1
2017-Oct-19 05:31N 31°24' E 121°34'3 6.5
2017-Oct-19 05:00N 31°22' E 121°37'4 7.2
2017-Oct-19 04:30N 31°20' E 121°41'4 7.9
2017-Oct-19 04:01N 31°19' E 121°45'610.4
2017-Oct-19 03:25N 31°16' E 121°52'410.4
2017-Oct-19 03:00N 31°15' E 121°57'5 9.9
2017-Oct-19 02:31N 31°14' E 122°02'510.2
2017-Oct-19 02:01N 31°13' E 122°08'510.4
2017-Oct-19 01:30N 31°10' E 122°13'5 9.5
2017-Oct-19 01:01N 31°07' E 122°17'4 7.1
2017-Oct-19 00:31N 31°06' E 122°21'4 6.6
2017-Oct-18 23:51N 31°06' E 122°27'  

Dump ship's entire track history